Main page
METAR-TAF:

METAR-TAF

Airports :

Bournemouth Airport

Bournemouth, England

latitude: 50-47N, longitude: 001-50W, elevation: 11 m

Current weather observation

The report was made 19 minutes ago, at 07:20 UTC
Wind 11 kt from the West/Northwest
Temperature 13°C
Humidity 72%
Pressure 998 hPa
Visibility 10 km or more
Few clouds at a height of 2200 ft
Scattered clouds at a height of 4600 ft

METAR: EGHH 050720Z 29011KT 9999 FEW022 SCT046 13/08 Q0998

Time: 08:39 (07:39 UTC)

Forecast

The report was made 2 hours and 4 minutes ago, at 05:35 UTC
Forecast valid from 05 at 06 UTC to 05 at 16 UTC
Wind 14 kt from the West/Northwest
Visibility 10 km or more
Scattered clouds at a height of 2000 ft
Probability 30% :
Temporary
from 05 at 08 UTC to 05 at 16 UTC
Wind 17 kt from the West/Northwest with gusts up to 27 kt
Visibility: 8000 m
rain showers

TAF: EGHH 050535Z 0506/0516 30014KT 9999 SCT020 PROB30 TEMPO 0508/0516 30017G27KT 8000 SHRA

Weather observations and forecasts of more than 4000 airports (METAR and TAF reports).

The available stations are represented by yellow and red dots on the map.

Hover mouse over dot to see the name of the station.

Then click to see weather observations and forecasts.

To change the map : click on the green buttons with a black cross to zoom in, on the green button with a dash to zoom out, or on the green arrows for adjacent maps.


METAR-TAF: